Time;durP1;ratioP1;P1;durP2;ratioP2;P2;SDS_P1;SDS_P2;PMS_P1;PMS_P2;Temp;Humidity;BMP_temperature;BMP_pressure;BME280_temperature;BME280_humidity;BME280_pressure;Samples;Min_cycle;Max_cycle;Signal;HPM_P1;HPM_P2
2021/04/07 00:00:28;;;;;;;8.40;2.60;;;;;;;1.57;100.00;100076.91;4969636;28;20203;-70
2021/04/07 00:02:56;;;;;;;10.27;3.17;;;;;;;1.53;100.00;100078.41;4952999;29;20230;-70
2021/04/07 00:05:30;;;;;;;7.30;3.07;;;;;;;1.49;100.00;100073.75;4967174;28;20629;-70
2021/04/07 00:07:56;;;;;;;8.47;2.90;;;;;;;1.40;100.00;100083.13;4953861;29;20206;-70
2021/04/07 00:10:22;;;;;;;6.93;2.73;;;;;;;1.46;100.00;100079.56;4953067;28;20266;-70
2021/04/07 00:12:47;;;;;;;6.13;2.20;;;;;;;1.38;100.00;100074.53;4952778;29;20219;-70
2021/04/07 00:15:26;;;;;;;7.23;2.60;;;;;;;1.39;100.00;100073.50;4969240;28;20537;-70
2021/04/07 00:17:54;;;;;;;8.23;2.63;;;;;;;1.28;100.00;100076.94;4953444;28;20190;-70
2021/04/07 00:20:21;;;;;;;6.60;2.10;;;;;;;1.22;100.00;100080.50;4954173;28;20213;-70
2021/04/07 00:22:47;;;;;;;11.47;2.40;;;;;;;1.50;100.00;100083.38;4968804;28;20615;-70
2021/04/07 00:25:15;;;;;;;11.57;2.80;;;;;;;1.30;100.00;100080.22;4948269;28;20206;-70
2021/04/07 00:27:42;;;;;;;5.13;2.33;;;;;;;1.43;100.00;100074.69;4937245;29;20235;-71
2021/04/07 00:30:09;;;;;;;5.17;2.43;;;;;;;1.22;100.00;100077.84;4948628;28;20204;-70
2021/04/07 00:32:35;;;;;;;7.63;2.50;;;;;;;1.33;100.00;100084.28;4952388;29;20191;-70
2021/04/07 00:35:03;;;;;;;6.40;2.43;;;;;;;1.49;100.00;100083.66;4969427;28;20209;-70
2021/04/07 00:37:32;;;;;;;9.77;2.73;;;;;;;1.27;100.00;100072.63;4952455;29;20221;-71
2021/04/07 00:40:03;;;;;;;6.63;3.07;;;;;;;1.27;100.00;100077.97;4954230;28;20278;-70
2021/04/07 00:42:35;;;;;;;6.53;2.70;;;;;;;1.48;100.00;100082.00;4967213;28;20235;-71
2021/04/07 00:45:04;;;;;;;3.23;2.57;;;;;;;1.15;100.00;100084.31;4953327;29;20234;-70
2021/04/07 00:47:35;;;;;;;8.43;3.30;;;;;;;1.38;100.00;100084.44;4935307;29;20230;-70
2021/04/07 00:50:03;;;;;;;8.03;3.43;;;;;;;1.20;100.00;100090.63;4952819;28;20179;-69
2021/04/07 00:52:31;;;;;;;9.70;3.87;;;;;;;1.24;100.00;100094.47;4967426;28;20598;-71
2021/04/07 00:55:01;;;;;;;6.40;3.67;;;;;;;1.23;100.00;100092.84;4968528;28;20183;-70
2021/04/07 00:57:27;;;;;;;9.20;3.93;;;;;;;1.22;100.00;100099.22;4952359;28;20218;-70
2021/04/07 00:59:58;;;;;;;7.37;3.90;;;;;;;1.18;100.00;100089.22;4952690;29;20574;-70
2021/04/07 01:02:23;;;;;;;8.90;4.47;;;;;;;1.12;100.00;100102.66;4936033;29;20310;-70
2021/04/07 01:04:51;;;;;;;6.47;4.03;;;;;;;1.10;100.00;100100.25;4952484;28;20187;-70
2021/04/07 01:07:17;;;;;;;9.57;4.40;;;;;;;1.16;100.00;100105.47;4968035;28;20286;-69
2021/04/07 01:09:42;;;;;;;8.33;4.70;;;;;;;1.09;100.00;100108.47;4968544;28;20183;-70
2021/04/07 01:12:12;;;;;;;7.57;4.63;;;;;;;1.13;100.00;100096.28;4967577;28;20282;-71
2021/04/07 01:14:37;;;;;;;5.83;4.10;;;;;;;1.10;100.00;100102.06;4969055;28;20389;-71
2021/04/07 01:17:03;;;;;;;9.27;4.13;;;;;;;1.07;100.00;100105.22;4952033;29;20788;-70
2021/04/07 01:19:32;;;;;;;8.57;4.60;;;;;;;0.95;100.00;100112.34;4952998;29;20187;-70
2021/04/07 01:22:00;;;;;;;7.80;4.10;;;;;;;1.02;100.00;100105.06;4936381;29;20235;-71
2021/04/07 01:24:28;;;;;;;11.90;4.60;;;;;;;0.97;100.00;100110.25;4952874;28;20202;-71
2021/04/07 01:26:54;;;;;;;7.57;4.20;;;;;;;0.96;100.00;100109.44;4948368;28;20757;-71
2021/04/07 01:29:22;;;;;;;10.03;4.77;;;;;;;0.84;100.00;100115.75;4952231;29;20191;-70
2021/04/07 01:31:50;;;;;;;9.57;4.10;;;;;;;1.03;100.00;100104.84;4967279;28;20351;-70
2021/04/07 01:34:26;;;;;;;8.90;4.80;;;;;;;1.09;100.00;100103.13;4968538;28;20187;-70
2021/04/07 01:36:52;;;;;;;8.37;3.97;;;;;;;1.00;100.00;100107.16;4951923;28;20309;-70
2021/04/07 01:39:18;;;;;;;10.10;4.30;;;;;;;0.85;100.00;100106.72;4968845;28;20260;-70
2021/04/07 01:41:44;;;;;;;7.53;3.83;;;;;;;0.92;100.00;100105.59;4951273;28;20230;-70
2021/04/07 01:44:10;;;;;;;8.73;3.77;;;;;;;0.98;100.00;100111.91;4952901;29;20203;-70
2021/04/07 01:46:39;;;;;;;8.63;3.60;;;;;;;0.83;100.00;100116.81;4968297;28;20804;-70
2021/04/07 01:49:07;;;;;;;8.17;3.73;;;;;;;0.94;100.00;100121.41;4968912;28;20195;-69
2021/04/07 01:51:34;;;;;;;6.93;3.40;;;;;;;0.94;100.00;100126.75;4968154;28;20229;-70
2021/04/07 01:54:00;;;;;;;7.03;3.30;;;;;;;1.11;100.00;100119.75;4951865;28;20198;-70
2021/04/07 01:56:30;;;;;;;11.10;3.40;;;;;;;0.84;100.00;100121.94;4967109;28;20230;-70
2021/04/07 01:59:05;;;;;;;9.70;3.00;;;;;;;0.91;100.00;100133.34;4947088;28;20721;-70
2021/04/07 02:01:30;;;;;;;8.20;3.50;;;;;;;1.08;100.00;100128.22;4948212;28;20231;-70
2021/04/07 02:04:00;;;;;;;7.73;3.17;;;;;;;1.10;100.00;100132.31;4947827;28;20195;-71
2021/04/07 02:06:26;;;;;;;7.77;3.20;;;;;;;0.95;100.00;100133.72;4947530;28;20235;-70
2021/04/07 02:08:51;;;;;;;7.37;3.33;;;;;;;1.05;100.00;100128.69;4948479;28;20188;-70
2021/04/07 02:11:19;;;;;;;9.13;3.37;;;;;;;0.90;100.00;100126.38;4947763;28;20224;-70
2021/04/07 02:13:48;;;;;;;8.90;3.00;;;;;;;1.00;100.00;100120.50;4947312;29;20677;-70
2021/04/07 02:16:14;;;;;;;8.40;3.00;;;;;;;0.88;100.00;100124.97;4947567;28;20227;-71
2021/04/07 02:18:47;;;;;;;6.73;2.60;;;;;;;0.81;100.00;100122.38;4964505;28;20547;-70
2021/04/07 02:21:15;;;;;;;6.80;3.03;;;;;;;0.73;100.00;100119.16;4962849;28;20660;-70
2021/04/07 02:23:40;;;;;;;8.13;2.87;;;;;;;0.75;100.00;100117.09;4947107;29;20240;-70
2021/04/07 02:26:08;;;;;;;7.13;2.67;;;;;;;0.88;100.00;100127.63;4942050;29;20278;-70
2021/04/07 02:28:34;;;;;;;6.30;3.03;;;;;;;0.88;100.00;100124.97;4944438;28;20197;-70
2021/04/07 02:31:00;;;;;;;5.67;3.03;;;;;;;0.89;100.00;100123.94;4934441;29;20215;-70
2021/04/07 02:33:28;;;;;;;6.50;2.90;;;;;;;0.86;100.00;100113.69;4966161;28;20185;-70
2021/04/07 02:35:54;;;;;;;9.27;3.40;;;;;;;0.78;100.00;100117.47;4966534;28;20227;-70
2021/04/07 02:38:19;;;;;;;7.53;3.50;;;;;;;0.70;100.00;100124.97;4967298;28;20183;-70
2021/04/07 02:40:45;;;;;;;14.43;4.50;;;;;;;0.65;100.00;100127.50;4950643;28;20715;-71
2021/04/07 02:43:13;;;;;;;14.17;4.33;;;;;;;0.65;100.00;100130.16;4934398;29;20183;-70
2021/04/07 02:45:46;;;;;;;14.10;4.07;;;;;;;0.68;100.00;100135.06;4965944;28;20281;-72
2021/04/07 02:48:14;;;;;;;13.80;5.07;;;;;;;0.72;100.00;100138.94;4944339;29;20607;-70
2021/04/07 02:50:39;;;;;;;9.20;4.10;;;;;;;0.64;100.00;100141.91;4930550;29;20227;-70
2021/04/07 02:53:07;;;;;;;8.70;3.67;;;;;;;0.67;100.00;100141.44;4930681;29;20195;-70
2021/04/07 02:55:35;;;;;;;8.87;3.23;;;;;;;0.57;100.00;100141.16;4948855;28;20231;-70
2021/04/07 02:58:03;;;;;;;8.63;3.70;;;;;;;0.63;100.00;100145.59;4950694;28;20205;-70
2021/04/07 03:00:30;;;;;;;9.80;2.80;;;;;;;0.55;100.00;100132.53;4966330;28;20183;-69
2021/04/07 03:02:58;;;;;;;7.60;2.87;;;;;;;0.57;100.00;100137.63;4965941;28;20210;-70
2021/04/07 03:05:26;;;;;;;10.33;2.83;;;;;;;0.57;100.00;100138.47;4966188;28;20590;-70
2021/04/07 03:07:54;;;;;;;8.63;2.80;;;;;;;0.55;100.00;100143.22;4965911;28;20222;-69
2021/04/07 03:10:19;;;;;;;9.13;3.20;;;;;;;0.53;100.00;100145.31;4933293;28;20187;-69
2021/04/07 03:12:45;;;;;;;5.97;2.67;;;;;;;0.56;100.00;100144.03;4950135;29;20237;-69
2021/04/07 03:15:11;;;;;;;5.73;2.60;;;;;;;0.62;100.00;100145.81;4950406;28;20237;-69
2021/04/07 03:17:37;;;;;;;4.57;2.43;;;;;;;0.40;100.00;100144.59;4950538;28;20183;-69
2021/04/07 03:20:09;;;;;;;10.30;3.00;;;;;;;0.49;100.00;100129.91;4966704;28;20193;-70
2021/04/07 03:22:35;;;;;;;9.77;2.70;;;;;;;0.54;100.00;100138.91;4949311;29;20707;-69
2021/04/07 03:25:01;;;;;;;7.03;2.70;;;;;;;0.38;100.00;100139.50;4934549;29;20187;-69
2021/04/07 03:27:28;;;;;;;9.77;3.33;;;;;;;0.44;100.00;100135.94;4966080;28;20673;-69
2021/04/07 03:29:59;;;;;;;10.30;2.80;;;;;;;0.46;100.00;100138.41;4950555;28;20202;-69
2021/04/07 03:32:27;;;;;;;7.27;3.23;;;;;;;0.50;100.00;100135.03;4944266;29;20799;-69
2021/04/07 03:34:53;;;;;;;8.83;2.77;;;;;;;0.45;100.00;100142.88;4966590;28;20201;-70
2021/04/07 03:37:21;;;;;;;5.40;2.40;;;;;;;0.29;100.00;100147.97;4933850;29;20850;-68
2021/04/07 03:39:49;;;;;;;7.00;2.40;;;;;;;0.38;100.00;100142.16;4950331;29;20198;-70
2021/04/07 03:42:17;;;;;;;5.27;2.20;;;;;;;0.36;100.00;100145.25;4949450;28;20226;-69
2021/04/07 03:44:42;;;;;;;7.13;2.60;;;;;;;0.38;100.00;100145.84;4950401;28;20183;-70
2021/04/07 03:47:14;;;;;;;8.90;2.40;;;;;;;0.25;100.00;100146.78;4949634;29;20231;-69
2021/04/07 03:49:40;;;;;;;10.40;2.60;;;;;;;0.39;100.00;100143.78;4950809;28;20197;-70
2021/04/07 03:52:05;;;;;;;7.90;2.40;;;;;;;0.35;100.00;100147.13;4966079;28;20231;-69
2021/04/07 03:54:36;;;;;;;7.53;2.17;;;;;;;0.26;100.00;100147.63;4967032;28;20199;-69
2021/04/07 03:57:02;;;;;;;5.80;2.33;;;;;;;0.37;100.00;100141.53;4950026;28;20285;-69
2021/04/07 03:59:27;;;;;;;14.33;2.43;;;;;;;0.27;100.00;100146.56;4947708;28;20199;-69
2021/04/07 04:01:55;;;;;;;7.77;2.10;;;;;;;0.33;100.00;100153.69;4932853;28;20249;-69
2021/04/07 04:04:23;;;;;;;7.27;1.67;;;;;;;0.35;100.00;100151.63;4950130;29;20195;-71
2021/04/07 04:06:52;;;;;;;10.40;2.23;;;;;;;0.36;100.00;100150.59;4933049;29;20235;-70
2021/04/07 04:09:18;;;;;;;8.77;2.67;;;;;;;0.27;100.00;100158.06;4962656;28;20192;-70
2021/04/07 04:11:43;;;;;;;11.43;2.60;;;;;;;0.34;100.00;100155.34;4932022;29;20772;-70
2021/04/07 04:14:09;;;;;;;10.50;2.80;;;;;;;0.32;100.00;100157.41;4933866;29;20211;-70
2021/04/07 04:16:34;;;;;;;11.03;3.00;;;;;;;0.34;100.00;100160.69;4933934;29;20591;-70
2021/04/07 04:19:00;;;;;;;9.50;3.30;;;;;;;0.31;100.00;100166.44;4948320;29;20184;-69
2021/04/07 04:21:26;;;;;;;7.93;2.60;;;;;;;0.33;100.00;100172.38;4947583;28;20243;-70
2021/04/07 04:23:51;;;;;;;7.13;2.37;;;;;;;0.29;100.00;100173.88;4949668;29;20191;-69
2021/04/07 04:26:17;;;;;;;9.67;2.70;;;;;;;0.41;100.00;100167.59;4917683;29;20734;-70
2021/04/07 04:28:44;;;;;;;8.73;2.40;;;;;;;0.30;100.00;100168.31;4950607;29;20259;-69
2021/04/07 04:31:10;;;;;;;6.97;2.37;;;;;;;0.33;100.00;100170.56;4940843;28;20226;-70
2021/04/07 04:33:36;;;;;;;11.83;2.60;;;;;;;0.26;100.00;100179.66;4952846;28;20183;-70
2021/04/07 04:36:03;;;;;;;6.17;1.87;;;;;;;0.35;100.00;100179.16;4953741;28;20237;-70
2021/04/07 04:38:29;;;;;;;11.80;2.47;;;;;;;0.22;100.00;100183.78;4953688;29;20941;-69
2021/04/07 04:40:55;;;;;;;5.87;2.20;;;;;;;0.24;100.00;100176.38;4968683;28;20231;-68
2021/04/07 04:43:20;;;;;;;9.23;1.97;;;;;;;0.26;100.00;100174.31;4968364;28;20573;-70
2021/04/07 04:45:46;;;;;;;4.83;2.20;;;;;;;0.22;100.00;100179.28;4952082;28;20305;-70
2021/04/07 04:48:12;;;;;;;9.50;2.93;;;;;;;0.21;100.00;100179.47;4969180;28;20202;-70
2021/04/07 04:50:37;;;;;;;8.50;2.70;;;;;;;0.21;100.00;100180.28;4968672;28;20245;-70
2021/04/07 04:53:03;;;;;;;8.60;2.23;;;;;;;0.20;100.00;100191.19;4968199;28;20181;-69
2021/04/07 04:55:29;;;;;;;12.10;2.43;;;;;;;0.24;100.00;100197.72;4952216;28;20227;-70
2021/04/07 04:57:56;;;;;;;9.67;2.17;;;;;;;0.14;100.00;100197.41;4968977;28;20189;-71
2021/04/07 05:00:28;;;;;;;9.07;2.40;;;;;;;0.30;100.00;100191.53;4952466;28;20265;-70
2021/04/07 05:02:54;;;;;;;10.03;2.83;;;;;;;0.23;100.00;100196.09;4968160;28;20187;-70
2021/04/07 05:05:22;;;;;;;38.30;21.07;;;;;;;0.37;100.00;100193.09;4968431;28;20191;-69
2021/04/07 05:07:50;;;;;;;15.13;7.23;;;;;;;0.37;100.00;100192.28;4951309;28;20674;-69
2021/04/07 05:10:15;;;;;;;8.57;2.50;;;;;;;0.34;100.00;100198.06;4958689;28;20187;-70
2021/04/07 05:12:41;;;;;;;8.13;2.17;;;;;;;0.45;100.00;100203.50;4955993;28;20307;-70
2021/04/07 05:15:10;;;;;;;8.80;2.97;;;;;;;0.48;100.00;100195.06;4952293;28;20187;-71
2021/04/07 05:17:38;;;;;;;6.17;2.20;;;;;;;0.53;100.00;100198.72;4967147;28;20175;-69
2021/04/07 05:20:07;;;;;;;8.73;2.60;;;;;;;0.51;100.00;100200.78;4960550;28;20203;-69
2021/04/07 05:22:33;;;;;;;8.43;2.67;;;;;;;0.64;100.00;100206.00;4951026;29;20841;-69
2021/04/07 05:24:59;;;;;;;6.30;2.33;;;;;;;0.61;100.00;100210.97;4952675;29;20233;-68
2021/04/07 05:27:27;;;;;;;36.17;17.97;;;;;;;0.74;100.00;100205.50;4949994;29;20227;-69
2021/04/07 05:29:52;;;;;;;8.03;3.13;;;;;;;0.76;100.00;100214.91;4946881;29;20544;-69
2021/04/07 05:32:18;;;;;;;8.00;2.07;;;;;;;0.60;100.00;100203.97;4950040;28;20230;-69
2021/04/07 05:34:44;;;;;;;7.80;2.53;;;;;;;0.68;100.00;100209.88;4947620;29;20186;-70
2021/04/07 05:37:09;;;;;;;7.50;2.07;;;;;;;0.70;100.00;100215.00;4964256;28;20237;-68
2021/04/07 05:39:36;;;;;;;6.07;2.17;;;;;;;0.71;100.00;100212.09;4951496;28;20204;-70
2021/04/07 05:42:01;;;;;;;6.67;2.20;;;;;;;0.71;100.00;100221.97;4963460;28;20251;-71
2021/04/07 05:44:29;;;;;;;7.30;2.30;;;;;;;0.88;100.00;100223.84;4950089;29;20215;-71
2021/04/07 05:46:59;;;;;;;5.43;1.80;;;;;;;0.94;100.00;100212.28;4950981;29;20333;-70
2021/04/07 05:49:28;;;;;;;7.67;2.33;;;;;;;1.20;100.00;100218.97;4955268;28;20203;-70
2021/04/07 05:51:53;;;;;;;5.77;2.20;;;;;;;0.96;100.00;100220.91;4947529;28;20302;-71
2021/04/07 05:54:24;;;;;;;7.57;2.30;;;;;;;0.89;100.00;100230.81;4967140;28;20199;-71
2021/04/07 05:56:49;;;;;;;11.33;2.73;;;;;;;1.01;100.00;100229.03;4951487;28;20226;-73
2021/04/07 05:59:18;;;;;;;7.00;2.43;;;;;;;1.07;100.00;100228.19;4967816;28;20238;-71
2021/04/07 06:01:46;;;;;;;9.90;2.60;;;;;;;0.99;100.00;100241.81;4966620;28;20238;-71
2021/04/07 06:04:12;;;;;;;6.47;2.13;;;;;;;0.92;100.00;100230.41;4951896;28;20194;-72
2021/04/07 06:06:37;;;;;;;5.07;2.53;;;;;;;0.94;100.00;100239.00;4966971;28;20251;-70
2021/04/07 06:09:03;;;;;;;5.97;2.33;;;;;;;1.20;100.00;100237.69;4935885;29;20554;-71
2021/04/07 06:11:33;;;;;;;7.53;2.67;;;;;;;1.06;100.00;100226.53;4966753;28;20756;-71
2021/04/07 06:13:59;;;;;;;5.40;1.80;;;;;;;1.28;100.00;100236.56;4950883;29;20570;-71
2021/04/07 06:16:24;;;;;;;7.23;2.07;;;;;;;1.23;100.00;100236.44;4950300;28;20222;-72
2021/04/07 06:18:52;;;;;;;8.47;2.03;;;;;;;1.25;100.00;100237.84;4967645;28;20207;-70
2021/04/07 06:21:20;;;;;;;9.80;2.23;;;;;;;1.36;100.00;100241.63;4950836;29;20226;-71
2021/04/07 06:23:46;;;;;;;8.00;2.03;;;;;;;1.20;100.00;100251.03;4950892;28;20183;-71
2021/04/07 06:26:16;;;;;;;6.97;2.00;;;;;;;1.10;100.00;100249.09;4950717;28;20242;-70
2021/04/07 06:28:42;;;;;;;10.37;2.37;;;;;;;1.24;100.00;100257.56;4951808;28;20656;-71
2021/04/07 06:31:10;;;;;;;6.53;2.80;;;;;;;1.15;100.00;100258.94;4950857;28;20231;-71
2021/04/07 06:33:40;;;;;;;7.20;2.87;;;;;;;1.17;100.00;100256.84;4951785;28;20265;-70
2021/04/07 06:36:09;;;;;;;8.73;2.70;;;;;;;1.29;100.00;100249.72;4966179;28;20234;-71
2021/04/07 06:38:37;;;;;;;8.40;2.47;;;;;;;1.43;100.00;100251.22;4951574;28;20194;-71
2021/04/07 06:41:03;;;;;;;6.17;2.43;;;;;;;1.34;100.00;100252.53;4950829;28;20226;-71
2021/04/07 06:43:31;;;;;;;8.17;2.57;;;;;;;1.39;100.00;100260.72;4950326;28;20195;-71
2021/04/07 06:45:58;;;;;;;7.37;2.90;;;;;;;1.53;100.00;100262.19;4965404;28;20606;-71
2021/04/07 06:48:24;;;;;;;8.13;2.50;;;;;;;1.50;100.00;100259.13;4951279;28;20187;-71
2021/04/07 06:50:53;;;;;;;7.80;2.80;;;;;;;1.47;100.00;100262.28;4965948;28;20235;-70
2021/04/07 06:53:21;;;;;;;5.67;2.67;;;;;;;1.38;100.00;100263.63;4965665;28;20185;-72
2021/04/07 06:55:49;;;;;;;9.13;2.63;;;;;;;1.37;100.00;100257.44;4949964;28;20239;-72
2021/04/07 06:58:17;;;;;;;5.87;2.20;;;;;;;1.42;100.00;100262.94;4951175;29;20187;-73
2021/04/07 07:00:45;;;;;;;8.30;2.70;;;;;;;1.61;100.00;100261.88;4950344;28;20222;-71
2021/04/07 07:03:12;;;;;;;9.87;2.60;;;;;;;1.54;100.00;100259.28;4966146;28;20199;-72
2021/04/07 07:05:40;;;;;;;8.60;2.87;;;;;;;1.66;100.00;100251.31;4950094;28;20297;-71
2021/04/07 07:08:08;;;;;;;9.13;2.63;;;;;;;1.51;100.00;100253.56;4935155;29;20226;-71
2021/04/07 07:10:38;;;;;;;8.20;2.33;;;;;;;1.58;100.00;100257.00;4966532;28;20245;-72
2021/04/07 07:13:04;;;;;;;9.60;2.73;;;;;;;1.75;100.00;100253.47;4950922;29;20194;-71
2021/04/07 07:15:29;;;;;;;5.47;2.20;;;;;;;1.65;100.00;100261.22;4969098;28;20237;-71
2021/04/07 07:17:55;;;;;;;7.57;2.43;;;;;;;1.68;100.00;100258.06;4969740;28;20175;-72
2021/04/07 07:20:49;;;;;;;6.27;2.10;;;;;;;1.86;100.00;100251.88;4968919;28;20665;-71
2021/04/07 07:23:21;;;;;;;6.50;2.27;;;;;;;2.10;100.00;100255.22;4935512;29;20206;-71
2021/04/07 07:26:13;;;;;;;5.57;2.40;;;;;;;2.30;100.00;100258.44;4966450;28;20326;-71
2021/04/07 07:28:53;;;;;;;6.40;2.40;;;;;;;2.34;100.00;100256.94;4967358;28;20681;-71
2021/04/07 07:31:29;;;;;;;6.17;2.00;;;;;;;1.89;100.00;100262.13;4966380;28;20219;-71
2021/04/07 07:33:59;;;;;;;6.83;2.20;;;;;;;2.18;100.00;100257.59;4963874;28;20206;-71
2021/04/07 07:36:25;;;;;;;5.73;2.43;;;;;;;2.22;100.00;100249.94;4951843;28;20222;-72
2021/04/07 07:38:55;;;;;;;4.80;2.20;;;;;;;2.73;100.00;100257.16;4951454;29;20194;-71
2021/04/07 07:41:36;;;;;;;4.73;1.80;;;;;;;2.41;100.00;100261.16;4950670;28;20300;-72
2021/04/07 07:44:03;;;;;;;5.27;1.70;;;;;;;2.45;100.00;100265.00;4937496;29;20316;-72
2021/04/07 07:46:32;;;;;;;4.63;2.30;;;;;;;2.62;100.00;100259.78;4958993;28;20246;-70
2021/04/07 07:49:01;;;;;;;5.30;2.50;;;;;;;2.46;100.00;100260.47;4967241;28;20195;-70
2021/04/07 07:51:27;;;;;;;4.47;2.07;;;;;;;2.71;100.00;100264.56;4952564;28;20227;-70
2021/04/07 07:53:54;;;;;;;4.17;2.10;;;;;;;2.66;100.00;100277.06;4950380;29;20648;-72
2021/04/07 07:56:23;;;;;;;5.43;2.20;;;;;;;2.67;100.00;100273.31;4968558;28;20321;-72
2021/04/07 07:58:52;;;;;;;3.73;2.00;;;;;;;2.73;100.00;100267.88;4971624;28;20199;-71
2021/04/07 08:01:21;;;;;;;3.27;1.87;;;;;;;2.33;100.00;100266.03;4955574;29;20294;-71
2021/04/07 08:03:51;;;;;;;3.37;2.10;;;;;;;2.51;100.00;100274.81;4957442;28;20183;-71
2021/04/07 08:06:16;;;;;;;4.80;1.80;;;;;;;2.32;100.00;100280.47;4957458;28;20371;-71
2021/04/07 08:08:42;;;;;;;2.97;1.70;;;;;;;2.34;100.00;100281.03;4958492;29;20208;-70
2021/04/07 08:11:13;;;;;;;3.97;1.93;;;;;;;2.44;100.00;100289.38;4953251;28;20219;-70
2021/04/07 08:13:45;;;;;;;4.23;2.40;;;;;;;2.42;100.00;100284.22;4948418;29;20790;-69
2021/04/07 08:16:24;;;;;;;6.07;2.27;;;;;;;2.44;100.00;100289.38;4938102;29;20310;-71
2021/04/07 08:18:52;;;;;;;4.73;2.80;;;;;;;2.51;100.00;100290.91;4948147;28;20191;-70
2021/04/07 08:21:18;;;;;;;5.23;2.40;;;;;;;2.38;100.00;100288.41;4936005;29;20608;-71
2021/04/07 08:23:44;;;;;;;5.17;2.83;;;;;;;2.44;100.00;100290.16;4948058;28;20197;-73
2021/04/07 08:26:10;;;;;;;4.17;2.70;;;;;;;2.42;100.00;100292.25;4966761;28;20306;-72
2021/04/07 08:28:39;;;;;;;3.93;2.50;;;;;;;2.57;100.00;100289.16;4935059;29;20270;-71
2021/04/07 08:31:13;;;;;;;4.53;2.57;;;;;;;2.49;100.00;100297.50;4953125;29;20644;-70
2021/04/07 08:33:43;;;;;;;7.67;3.20;;;;;;;2.68;100.00;100297.22;4964558;28;20222;-70
2021/04/07 08:36:09;;;;;;;6.90;3.30;;;;;;;2.96;100.00;100286.63;4952672;28;20302;-70
2021/04/07 08:38:36;;;;;;;5.83;3.07;;;;;;;2.89;100.00;100289.41;4969227;28;20186;-70
2021/04/07 08:41:08;;;;;;;4.47;3.10;;;;;;;2.91;100.00;100291.88;4968469;28;20231;-70
2021/04/07 08:43:37;;;;;;;4.97;2.30;;;;;;;2.65;100.00;100291.50;4966349;28;20270;-70
2021/04/07 08:46:23;;;;;;;4.47;2.53;;;;;;;2.71;100.00;100288.69;4964762;28;20235;-70
2021/04/07 08:48:48;;;;;;;12.43;5.13;;;;;;;2.84;100.00;100302.72;4957324;28;20705;-69
2021/04/07 08:51:19;;;;;;;7.87;3.50;;;;;;;2.81;100.00;100307.72;4964235;28;20656;-71
2021/04/07 08:53:50;;;;;;;4.67;3.07;;;;;;;2.90;100.00;100293.75;4968440;28;20265;-71
2021/04/07 08:56:28;;;;;;;9.23;3.93;;;;;;;3.12;100.00;100289.44;4953983;28;20229;-70
2021/04/07 08:58:57;;;;;;;10.63;5.33;;;;;;;3.20;100.00;100297.13;4964757;28;20195;-72
2021/04/07 09:01:25;;;;;;;5.77;3.20;;;;;;;2.89;100.00;100294.78;4950206;28;20223;-69
2021/04/07 09:04:12;;;;;;;5.67;2.80;;;;;;;3.18;100.00;100299.22;4968037;28;20179;-70
2021/04/07 09:06:44;;;;;;;5.63;3.57;;;;;;;3.32;100.00;100292.59;4952254;28;20223;-72
2021/04/07 09:09:12;;;;;;;5.40;3.70;;;;;;;3.55;100.00;100294.19;4952297;29;20184;-72
2021/04/07 09:11:38;;;;;;;4.00;3.20;;;;;;;3.26;100.00;100301.56;4934626;29;20219;-72
2021/04/07 09:14:05;;;;;;;4.80;3.87;;;;;;;3.49;100.00;100289.75;4962751;28;20215;-72
2021/04/07 09:16:35;;;;;;;5.07;3.73;;;;;;;3.37;100.00;100298.06;4940470;29;20306;-72
2021/04/07 09:19:31;;;;;;;4.87;2.80;;;;;;;3.55;100.00;100296.88;4972849;28;20614;-72
2021/04/07 09:22:05;;;;;;;5.40;3.00;;;;;;;3.52;100.00;100294.66;4942497;29;20245;-71
2021/04/07 09:24:42;;;;;;;3.93;3.33;;;;;;;3.65;100.00;100294.41;4960259;28;20634;-72
2021/04/07 09:27:22;;;;;;;3.97;2.87;;;;;;;3.37;100.00;100298.06;4956520;28;20705;-71
2021/04/07 09:29:48;;;;;;;4.53;2.60;;;;;;;3.37;100.00;100303.41;4954907;28;20198;-72
2021/04/07 09:32:18;;;;;;;5.07;3.03;;;;;;;3.65;100.00;100302.47;4968141;28;20723;-71
2021/04/07 09:34:46;;;;;;;2.93;2.50;;;;;;;3.56;100.00;100301.19;4936751;29;20191;-72
2021/04/07 09:37:15;;;;;;;3.17;2.13;;;;;;;3.50;100.00;100296.75;4952290;28;20238;-73
2021/04/07 09:39:43;;;;;;;3.53;2.50;;;;;;;3.54;100.00;100308.66;4951640;28;20649;-73
2021/04/07 09:42:11;;;;;;;3.80;2.60;;;;;;;3.33;100.00;100297.69;4947862;29;20239;-72
2021/04/07 09:44:39;;;;;;;2.87;1.87;;;;;;;3.55;100.00;100296.03;4965128;28;20187;-71
2021/04/07 09:47:09;;;;;;;3.67;2.40;;;;;;;3.63;100.00;100304.56;4957982;28;20223;-71
2021/04/07 09:49:35;;;;;;;1.73;1.60;;;;;;;3.42;100.00;100306.22;4967839;28;20567;-71
2021/04/07 09:52:03;;;;;;;4.60;2.20;;;;;;;3.53;100.00;100298.97;4966462;28;20234;-71
2021/04/07 09:54:30;;;;;;;2.73;2.07;;;;;;;3.49;100.00;100311.22;4951912;28;20550;-71
2021/04/07 09:57:04;;;;;;;2.80;1.63;;;;;;;3.57;100.00;100305.50;4948741;28;20606;-71
2021/04/07 09:59:41;;;;;;;2.40;1.70;;;;;;;3.51;100.00;100306.44;4967964;28;20668;-71
2021/04/07 10:02:15;;;;;;;2.27;1.70;;;;;;;3.62;100.00;100313.66;4951409;29;20223;-70
2021/04/07 10:04:42;;;;;;;2.57;1.40;;;;;;;3.52;100.00;100305.41;4936016;29;20214;-71
2021/04/07 10:07:11;;;;;;;2.17;1.70;;;;;;;3.72;100.00;100313.88;4946290;28;20982;-70
2021/04/07 10:09:36;;;;;;;2.17;1.50;;;;;;;3.45;100.00;100318.13;4950980;29;20187;-72
2021/04/07 10:12:05;;;;;;;4.60;1.87;;;;;;;3.67;100.00;100311.09;4966147;28;20238;-71
2021/04/07 10:14:30;;;;;;;2.97;1.70;;;;;;;3.71;100.00;100312.25;4967851;28;20193;-71
2021/04/07 10:17:10;;;;;;;23.07;15.60;;;;;;;3.92;100.00;100319.69;4960740;28;20223;-72
2021/04/07 10:19:38;;;;;;;4.27;3.77;;;;;;;4.19;100.00;100316.19;4949444;28;20187;-70
2021/04/07 10:22:07;;;;;;;3.07;1.90;;;;;;;4.20;100.00;100317.03;4944206;29;20693;-70
2021/04/07 10:24:35;;;;;;;1.83;1.57;;;;;;;4.02;100.00;100320.69;4916749;29;20176;-70
2021/04/07 10:27:03;;;;;;;2.20;2.00;;;;;;;4.51;100.00;100315.47;4916363;28;20234;-70
2021/04/07 10:29:33;;;;;;;2.30;1.73;;;;;;;4.59;100.00;100315.06;4932334;28;20202;-71
2021/04/07 10:31:59;;;;;;;2.03;1.80;;;;;;;4.60;100.00;100308.66;4947201;28;20235;-71
2021/04/07 10:34:32;;;;;;;2.40;2.20;;;;;;;4.72;100.00;100310.19;4954590;28;20195;-72
2021/04/07 10:36:58;;;;;;;1.70;1.60;;;;;;;4.57;100.00;100315.31;4933884;28;20231;-70
2021/04/07 10:39:24;;;;;;;1.93;1.73;;;;;;;4.79;100.00;100312.72;4948610;28;20195;-71
2021/04/07 10:41:53;;;;;;;2.83;1.63;;;;;;;4.42;100.00;100316.91;4959528;28;20225;-70
2021/04/07 10:44:28;;;;;;;3.10;1.60;;;;;;;4.25;100.00;100310.69;4944609;29;20566;-70
2021/04/07 10:46:54;;;;;;;3.70;1.90;;;;;;;4.29;100.00;100317.19;4947063;28;20231;-71
2021/04/07 10:49:21;;;;;;;2.67;2.07;;;;;;;4.39;100.00;100312.00;4948224;29;20662;-71
2021/04/07 10:52:08;;;;;;;2.00;1.80;;;;;;;4.40;100.00;100308.28;4931627;29;20242;-70
2021/04/07 10:54:34;;;;;;;3.10;2.17;;;;;;;4.38;100.00;100310.38;4932273;29;20207;-72
2021/04/07 10:57:09;;;;;;;2.70;2.37;;;;;;;4.45;100.00;100307.53;4947233;28;20565;-71
2021/04/07 10:59:35;;;;;;;2.60;2.40;;;;;;;5.04;100.00;100306.72;4951395;28;20210;-71
2021/04/07 11:02:15;;;;;;;2.30;1.83;;;;;;;4.79;100.00;100318.91;4965451;28;20226;-71
2021/04/07 11:04:43;;;;;;;2.67;2.00;;;;;;;4.88;100.00;100322.03;4951350;28;20265;-71
2021/04/07 11:07:12;;;;;;;1.83;1.73;;;;;;;5.12;100.00;100314.34;4950274;28;20239;-71
2021/04/07 11:09:51;;;;;;;2.43;2.13;;;;;;;5.53;100.00;100306.66;4951072;28;20249;-71
2021/04/07 11:12:21;;;;;;;2.10;1.90;;;;;;;5.67;100.00;100312.50;4965436;28;20227;-72
2021/04/07 11:14:55;;;;;;;2.20;2.00;;;;;;;5.87;100.00;100319.78;4967067;28;20195;-72
2021/04/07 11:17:21;;;;;;;1.83;1.73;;;;;;;5.54;100.00;100320.94;4934811;29;20235;-70
2021/04/07 11:19:46;;;;;;;3.80;1.80;;;;;;;5.99;100.00;100307.03;4950433;28;20194;-70
2021/04/07 11:22:12;;;;;;;3.00;1.97;;;;;;;6.40;99.44;100293.75;4949797;28;20229;-71
2021/04/07 11:24:38;;;;;;;2.03;1.90;;;;;;;6.64;99.47;100301.25;4966768;28;20191;-71
2021/04/07 11:27:10;;;;;;;3.37;1.90;;;;;;;6.72;98.50;100295.41;4946562;28;20231;-72
2021/04/07 11:29:36;;;;;;;2.20;1.73;;;;;;;6.88;95.96;100296.34;4964596;28;20271;-72